Time,TemperatureF,DewpointF,PressureIn,WindDirection,WindDirectionDegrees,WindSpeedMPH,WindSpeedGustMPH,Humidity,HourlyPrecipIn,Conditions,Clouds,dailyrainin,SoftwareType,DateUTC
2013-02-15 00:02:00,35.0,32.0,29.88,West,261,2.0,8.0,90,0.00,,,0.00,,2013-02-15 05:02:00,
2013-02-15 00:12:00,35.0,32.0,29.88,West,261,2.0,8.0,90,0.00,,,0.00,,2013-02-15 05:12:00,
2013-02-15 00:22:00,37.0,33.0,29.89,West,275,1.0,5.0,85,0.00,,,0.00,,2013-02-15 05:22:00,
2013-02-15 00:32:00,37.0,33.0,29.88,WSW,253,1.0,3.0,85,0.00,,,0.00,,2013-02-15 05:32:00,
2013-02-15 00:42:00,37.0,33.0,29.88,WSW,253,1.0,3.0,85,0.00,,,0.00,,2013-02-15 05:42:00,
2013-02-15 00:52:00,37.0,33.0,29.87,North,6,0.0,4.0,85,0.00,,,0.00,,2013-02-15 05:52:00,
2013-02-15 01:02:00,37.0,33.0,29.87,South,180,2.0,9.0,85,0.00,,,0.00,,2013-02-15 06:02:00,
2013-02-15 01:11:00,37.0,33.0,29.87,South,180,2.0,9.0,85,0.00,,,0.00,,2013-02-15 06:11:00,
2013-02-15 01:22:00,37.0,33.0,29.87,WNW,293,0.0,5.0,85,0.00,,,0.00,,2013-02-15 06:22:00,
2013-02-15 01:32:00,38.0,33.0,29.86,West,265,2.0,11.0,81,0.00,,,0.00,,2013-02-15 06:32:00,
2013-02-15 01:42:00,38.0,33.0,29.86,West,265,2.0,11.0,81,0.00,,,0.00,,2013-02-15 06:42:00,
2013-02-15 01:52:00,38.0,32.0,29.85,ENE,61,3.0,8.0,79,0.00,,,0.00,,2013-02-15 06:52:00,
2013-02-15 02:01:00,38.0,31.0,29.85,WNW,289,3.0,10.0,76,0.00,,,0.00,,2013-02-15 07:01:00,
2013-02-15 02:11:00,38.0,31.0,29.85,WNW,289,3.0,10.0,76,0.00,,,0.00,,2013-02-15 07:11:00,
2013-02-15 02:21:00,39.0,31.0,29.85,WSW,247,3.0,7.0,74,0.00,,,0.00,,2013-02-15 07:21:00,
2013-02-15 02:32:00,39.0,32.0,29.86,East,89,2.0,13.0,77,0.00,,,0.00,,2013-02-15 07:32:00,
2013-02-15 02:42:00,39.0,32.0,29.86,East,89,2.0,13.0,77,0.00,,,0.00,,2013-02-15 07:42:00,
2013-02-15 02:52:00,38.0,31.0,29.85,South,190,3.0,11.0,77,0.00,,,0.00,,2013-02-15 07:52:00,
2013-02-15 03:01:00,38.0,31.0,29.85,ENE,72,3.0,13.0,77,0.00,,,0.00,,2013-02-15 08:01:00,
2013-02-15 03:11:00,38.0,31.0,29.85,ENE,72,3.0,13.0,77,0.00,,,0.00,,2013-02-15 08:11:00,
2013-02-15 03:21:00,38.0,33.0,29.84,ESE,103,4.0,12.0,83,0.00,,,0.00,,2013-02-15 08:21:00,
2013-02-15 03:32:00,37.0,33.0,29.84,NE,39,3.0,10.0,84,0.00,,,0.00,,2013-02-15 08:32:00,
2013-02-15 03:42:00,37.0,33.0,29.84,NE,39,3.0,10.0,84,0.00,,,0.00,,2013-02-15 08:42:00,
2013-02-15 03:53:00,38.0,31.0,29.84,WSW,257,3.0,10.0,76,0.00,,,0.00,,2013-02-15 08:53:00,
2013-02-15 04:02:00,39.0,31.0,29.84,NW,315,3.0,12.0,74,0.00,,,0.00,,2013-02-15 09:02:00,
2013-02-15 04:12:00,39.0,31.0,29.84,NW,315,3.0,12.0,74,0.00,,,0.00,,2013-02-15 09:12:00,
2013-02-15 04:22:00,39.0,31.0,29.84,NE,39,3.0,11.0,73,0.00,,,0.00,,2013-02-15 09:22:00,
2013-02-15 04:32:00,39.0,31.0,29.84,North,5,4.0,11.0,74,0.00,,,0.00,,2013-02-15 09:32:00,
2013-02-15 04:42:00,39.0,31.0,29.84,North,5,4.0,11.0,74,0.00,,,0.00,,2013-02-15 09:42:00,
2013-02-15 04:52:00,39.0,31.0,29.83,NNW,336,2.0,8.0,74,0.00,,,0.00,,2013-02-15 09:52:00,
2013-02-15 05:01:00,39.0,31.0,29.84,ENE,70,2.0,6.0,74,0.00,,,0.00,,2013-02-15 10:01:00,
2013-02-15 05:11:00,39.0,31.0,29.84,ENE,70,2.0,6.0,74,0.00,,,0.00,,2013-02-15 10:11:00,
2013-02-15 05:21:00,39.0,31.0,29.84,ENE,63,3.0,12.0,74,0.00,,,0.00,,2013-02-15 10:21:00,
2013-02-15 05:32:00,39.0,31.0,29.84,SW,219,4.0,16.0,74,0.00,,,0.00,,2013-02-15 10:32:00,
2013-02-15 05:42:00,39.0,31.0,29.84,SW,219,4.0,16.0,74,0.00,,,0.00,,2013-02-15 10:42:00,
2013-02-15 05:52:00,39.0,31.0,29.84,SSE,148,3.0,9.0,74,0.00,,,0.00,,2013-02-15 10:52:00,
2013-02-15 06:01:00,39.0,31.0,29.85,SW,231,3.0,10.0,74,0.00,,,0.00,,2013-02-15 11:01:00,
2013-02-15 06:11:00,39.0,31.0,29.85,SW,231,3.0,10.0,74,0.00,,,0.00,,2013-02-15 11:11:00,
2013-02-15 06:23:00,39.0,31.0,29.85,ESE,107,3.0,7.0,73,0.00,,,0.00,,2013-02-15 11:23:00,
2013-02-15 06:32:00,38.0,30.0,29.85,SE,141,2.0,10.0,73,0.00,,,0.00,,2013-02-15 11:32:00,
2013-02-15 06:42:00,38.0,30.0,29.85,SE,141,2.0,10.0,73,0.00,,,0.00,,2013-02-15 11:42:00,
2013-02-15 06:52:00,38.0,30.0,29.85,WNW,293,2.0,7.0,73,0.00,,,0.00,,2013-02-15 11:52:00,
2013-02-15 07:02:00,38.0,30.0,29.85,SW,236,1.0,15.0,73,0.00,,,0.00,,2013-02-15 12:02:00,
2013-02-15 07:11:00,38.0,30.0,29.85,SW,236,1.0,15.0,73,0.00,,,0.00,,2013-02-15 12:11:00,
2013-02-15 07:22:00,38.0,30.0,29.86,SE,136,2.0,7.0,73,0.00,,,0.00,,2013-02-15 12:22:00,
2013-02-15 07:32:00,38.0,30.0,29.87,WNW,300,3.0,10.0,73,0.00,,,0.00,,2013-02-15 12:32:00,
2013-02-15 07:42:00,38.0,30.0,29.87,WNW,300,3.0,10.0,73,0.00,,,0.00,,2013-02-15 12:42:00,
2013-02-15 07:52:00,38.0,30.0,29.88,WSW,246,2.0,7.0,73,0.00,,,0.00,,2013-02-15 12:52:00,
2013-02-15 08:02:00,38.0,30.0,29.89,NW,308,1.0,7.0,73,0.00,,,0.00,,2013-02-15 13:02:00,
2013-02-15 08:11:00,38.0,30.0,29.89,NW,308,1.0,7.0,73,0.00,,,0.00,,2013-02-15 13:11:00,
2013-02-15 08:22:00,38.0,30.0,29.90,NE,46,3.0,7.0,73,0.00,,,0.00,,2013-02-15 13:22:00,
2013-02-15 08:32:00,38.0,30.0,29.90,SW,231,2.0,6.0,73,0.00,,,0.00,,2013-02-15 13:32:00,
2013-02-15 08:42:00,38.0,30.0,29.90,SW,231,2.0,6.0,73,0.00,,,0.00,,2013-02-15 13:42:00,
2013-02-15 08:52:00,39.0,31.0,29.91,West,276,0.0,7.0,73,0.00,,,0.00,,2013-02-15 13:52:00,
2013-02-15 09:01:00,39.0,31.0,29.91,WNW,299,2.0,6.0,72,0.00,,,0.00,,2013-02-15 14:01:00,
2013-02-15 09:12:00,39.0,31.0,29.91,WNW,299,2.0,6.0,72,0.00,,,0.00,,2013-02-15 14:12:00,
2013-02-15 09:22:00,39.0,30.0,29.91,NW,316,2.0,6.0,71,0.00,,,0.00,,2013-02-15 14:22:00,
2013-02-15 09:32:00,39.0,31.0,29.92,SW,235,0.0,5.0,72,0.00,,,0.00,,2013-02-15 14:32:00,
2013-02-15 09:42:00,39.0,31.0,29.92,SW,235,0.0,5.0,72,0.00,,,0.00,,2013-02-15 14:42:00,
2013-02-15 09:52:00,39.0,31.0,29.92,WSW,238,1.0,7.0,72,0.00,,,0.00,,2013-02-15 14:52:00,
2013-02-15 10:02:00,39.0,31.0,29.93,WSW,257,1.0,7.0,72,0.00,,,0.00,,2013-02-15 15:02:00,
2013-02-15 10:11:00,39.0,31.0,29.93,WSW,257,1.0,7.0,72,0.00,,,0.00,,2013-02-15 15:11:00,
2013-02-15 10:22:00,39.0,30.0,29.93,West,274,4.0,11.0,69,0.00,,,0.00,,2013-02-15 15:22:00,
2013-02-15 10:32:00,40.0,27.0,29.94,West,264,3.0,9.0,60,0.00,,,0.00,,2013-02-15 15:32:00,
2013-02-15 10:42:00,40.0,27.0,29.94,West,264,3.0,9.0,60,0.00,,,0.00,,2013-02-15 15:42:00,
2013-02-15 10:52:00,40.0,26.0,29.94,WNW,291,2.0,10.0,58,0.00,,,0.00,,2013-02-15 15:52:00,
2013-02-15 11:02:00,40.0,26.0,29.95,WNW,291,3.0,10.0,57,0.00,,,0.00,,2013-02-15 16:02:00,
2013-02-15 11:11:00,40.0,26.0,29.95,WNW,291,3.0,10.0,57,0.00,,,0.00,,2013-02-15 16:11:00,
2013-02-15 11:22:00,41.0,26.0,29.95,West,271,2.0,8.0,54,0.00,,,0.00,,2013-02-15 16:22:00,
2013-02-15 11:32:00,42.0,25.0,29.95,East,94,3.0,12.0,50,0.00,,,0.00,,2013-02-15 16:32:00,
2013-02-15 11:42:00,42.0,25.0,29.95,East,94,3.0,12.0,50,0.00,,,0.00,,2013-02-15 16:42:00,
2013-02-15 11:52:00,43.0,25.0,29.94,WNW,299,3.0,8.0,49,0.00,,,0.00,,2013-02-15 16:52:00,
2013-02-15 12:01:00,41.0,22.0,29.94,WSW,248,4.0,15.0,46,0.00,,,0.00,,2013-02-15 17:01:00,
2013-02-15 12:11:00,41.0,22.0,29.94,WSW,248,4.0,15.0,46,0.00,,,0.00,,2013-02-15 17:11:00,
2013-02-15 12:21:00,41.0,22.0,29.94,WNW,289,6.0,15.0,46,0.00,,,0.00,,2013-02-15 17:21:00,
2013-02-15 12:32:00,42.0,22.0,29.94,SW,215,5.0,13.0,45,0.00,,,0.00,,2013-02-15 17:32:00,
2013-02-15 12:42:00,42.0,22.0,29.94,SW,215,5.0,13.0,45,0.00,,,0.00,,2013-02-15 17:42:00,
2013-02-15 12:52:00,42.0,23.0,29.94,West,268,3.0,13.0,46,0.00,,,0.00,,2013-02-15 17:52:00,
2013-02-15 13:01:00,41.0,22.0,29.94,West,264,5.0,16.0,46,0.00,,,0.00,,2013-02-15 18:01:00,
2013-02-15 13:12:00,41.0,22.0,29.94,West,264,5.0,16.0,46,0.00,,,0.00,,2013-02-15 18:12:00,
2013-02-15 13:22:00,41.0,22.0,29.94,West,264,5.0,16.0,46,0.00,,,0.00,,2013-02-15 18:22:00,
2013-02-15 13:32:00,41.0,24.0,29.94,West,265,2.0,9.0,50,0.00,,,0.00,,2013-02-15 18:32:00,
2013-02-15 13:42:00,41.0,24.0,29.94,West,265,2.0,9.0,50,0.00,,,0.00,,2013-02-15 18:42:00,
2013-02-15 13:53:00,40.0,23.0,29.95,NW,306,5.0,15.0,50,0.00,,,0.00,,2013-02-15 18:53:00,
2013-02-15 14:02:00,40.0,23.0,29.95,WNW,291,2.0,9.0,51,0.00,,,0.00,,2013-02-15 19:02:00,
2013-02-15 14:11:00,40.0,23.0,29.95,WNW,291,2.0,9.0,51,0.00,,,0.00,,2013-02-15 19:11:00,
2013-02-15 14:22:00,41.0,24.0,29.95,WSW,251,4.0,11.0,51,0.00,,,0.00,,2013-02-15 19:22:00,
2013-02-15 14:32:00,40.0,24.0,29.95,WSW,247,2.0,12.0,52,0.00,,,0.00,,2013-02-15 19:32:00,
2013-02-15 14:42:00,40.0,24.0,29.95,WSW,247,2.0,12.0,52,0.00,,,0.00,,2013-02-15 19:42:00,
2013-02-15 14:52:00,40.0,24.0,29.94,SW,217,4.0,11.0,52,0.00,,,0.00,,2013-02-15 19:52:00,
2013-02-15 15:01:00,40.0,25.0,29.94,West,275,1.0,7.0,54,0.00,,,0.00,,2013-02-15 20:01:00,
2013-02-15 15:11:00,40.0,25.0,29.94,West,275,1.0,7.0,54,0.00,,,0.00,,2013-02-15 20:11:00,
2013-02-15 15:21:00,40.0,25.0,29.95,West,278,1.0,7.0,54,0.00,,,0.00,,2013-02-15 20:21:00,
2013-02-15 15:32:00,40.0,26.0,29.95,WNW,291,2.0,8.0,56,0.00,,,0.00,,2013-02-15 20:32:00,
2013-02-15 15:42:00,40.0,26.0,29.95,WNW,291,2.0,8.0,56,0.00,,,0.00,,2013-02-15 20:42:00,
2013-02-15 15:52:00,39.0,25.0,29.96,West,267,2.0,11.0,58,0.00,,,0.00,,2013-02-15 20:52:00,
2013-02-15 16:02:00,39.0,25.0,29.96,WSW,246,2.0,6.0,58,0.00,,,0.00,,2013-02-15 21:02:00,
2013-02-15 16:11:00,39.0,25.0,29.96,WSW,246,2.0,6.0,58,0.00,,,0.00,,2013-02-15 21:11:00,
2013-02-15 16:22:00,39.0,26.0,29.96,WNW,296,2.0,8.0,60,0.00,,,0.00,,2013-02-15 21:22:00,
2013-02-15 16:32:00,39.0,26.0,29.96,NW,314,2.0,9.0,60,0.00,,,0.00,,2013-02-15 21:32:00,
2013-02-15 16:42:00,39.0,26.0,29.96,NW,314,2.0,9.0,60,0.00,,,0.00,,2013-02-15 21:42:00,
2013-02-15 16:52:00,38.0,26.0,29.97,SW,234,2.0,9.0,62,0.00,,,0.00,,2013-02-15 21:52:00,
2013-02-15 17:02:00,38.0,25.0,29.97,West,277,3.0,12.0,60,0.00,,,0.00,,2013-02-15 22:02:00,
2013-02-15 17:11:00,38.0,25.0,29.97,West,277,3.0,12.0,60,0.00,,,0.00,,2013-02-15 22:11:00,
2013-02-15 17:22:00,37.0,26.0,29.98,WNW,282,3.0,12.0,65,0.00,,,0.00,,2013-02-15 22:22:00,
2013-02-15 17:32:00,36.0,26.0,29.98,WNW,292,1.0,8.0,68,0.00,,,0.00,,2013-02-15 22:32:00,
2013-02-15 17:42:00,36.0,26.0,29.98,WNW,292,1.0,8.0,68,0.00,,,0.00,,2013-02-15 22:42:00,
2013-02-15 17:52:00,35.0,26.0,29.98,WNW,291,2.0,7.0,69,0.00,,,0.00,,2013-02-15 22:52:00,
2013-02-15 18:02:00,35.0,26.0,29.98,WNW,288,0.0,3.0,69,0.00,,,0.00,,2013-02-15 23:02:00,
2013-02-15 18:11:00,35.0,26.0,29.98,WNW,288,0.0,3.0,69,0.00,,,0.00,,2013-02-15 23:11:00,
2013-02-15 18:21:00,35.0,26.0,29.98,WNW,292,0.0,5.0,70,0.00,,,0.00,,2013-02-15 23:21:00,
2013-02-15 18:32:00,35.0,26.0,29.98,WNW,284,0.0,3.0,70,0.00,,,0.00,,2013-02-15 23:32:00,
2013-02-15 18:42:00,35.0,26.0,29.98,WNW,284,0.0,3.0,70,0.00,,,0.00,,2013-02-15 23:42:00,
2013-02-15 18:52:00,35.0,26.0,29.99,SW,236,0.0,4.0,69,0.00,,,0.00,,2013-02-15 23:52:00,
2013-02-15 19:02:00,35.0,26.0,29.99,NW,308,1.0,3.0,69,0.00,,,0.00,,2013-02-16 00:02:00,
2013-02-15 19:11:00,35.0,26.0,29.99,NW,308,1.0,3.0,69,0.00,,,0.00,,2013-02-16 00:11:00,
2013-02-15 19:22:00,34.0,27.0,30.00,WNW,291,0.0,5.0,75,0.00,,,0.00,,2013-02-16 00:22:00,
2013-02-15 19:32:00,34.0,28.0,30.00,NW,309,1.0,3.0,77,0.00,,,0.00,,2013-02-16 00:32:00,
2013-02-15 19:42:00,34.0,28.0,30.00,NW,309,1.0,3.0,77,0.00,,,0.00,,2013-02-16 00:42:00,
2013-02-15 19:52:00,34.0,28.0,30.01,WNW,286,0.0,1.0,79,0.00,,,0.00,,2013-02-16 00:52:00,
2013-02-15 20:02:00,33.0,27.0,30.01,West,276,1.0,2.0,79,0.00,,,0.00,,2013-02-16 01:02:00,
2013-02-15 20:11:00,33.0,27.0,30.01,West,276,1.0,2.0,79,0.00,,,0.00,,2013-02-16 01:11:00,
2013-02-15 20:21:00,33.0,28.0,30.01,West,276,2.0,6.0,80,0.00,,,0.00,,2013-02-16 01:21:00,
2013-02-15 20:32:00,33.0,28.0,30.01,NW,304,1.0,4.0,81,0.00,,,0.00,,2013-02-16 01:32:00,
2013-02-15 20:42:00,33.0,28.0,30.01,NW,304,1.0,4.0,81,0.00,,,0.00,,2013-02-16 01:42:00,
2013-02-15 20:52:00,32.0,27.0,30.01,West,275,0.0,4.0,81,0.00,,,0.00,,2013-02-16 01:52:00,
2013-02-15 21:01:00,32.0,27.0,30.02,West,276,0.0,2.0,83,0.00,,,0.00,,2013-02-16 02:01:00,
2013-02-15 21:11:00,32.0,27.0,30.02,West,276,0.0,2.0,83,0.00,,,0.00,,2013-02-16 02:11:00,
2013-02-15 21:22:00,32.0,27.0,30.02,WNW,286,0.0,3.0,83,0.00,,,0.00,,2013-02-16 02:22:00,
2013-02-15 21:32:00,32.0,27.0,30.02,WNW,286,0.0,7.0,83,0.00,,,0.00,,2013-02-16 02:32:00,
2013-02-15 21:42:00,32.0,27.0,30.02,WNW,286,0.0,7.0,83,0.00,,,0.00,,2013-02-16 02:42:00,
2013-02-15 21:52:00,32.0,28.0,30.02,WNW,284,1.0,4.0,84,0.00,,,0.00,,2013-02-16 02:52:00,
2013-02-15 22:02:00,32.0,28.0,30.02,West,281,0.0,3.0,84,0.00,,,0.00,,2013-02-16 03:02:00,
2013-02-15 22:11:00,32.0,28.0,30.02,West,281,0.0,3.0,84,0.00,,,0.00,,2013-02-16 03:11:00,
2013-02-15 22:21:00,32.0,28.0,30.02,West,281,0.0,3.0,84,0.00,,,0.00,,2013-02-16 03:21:00,
2013-02-15 22:32:00,31.0,26.0,30.02,NW,305,1.0,4.0,81,0.00,,,0.00,,2013-02-16 03:32:00,
2013-02-15 22:42:00,31.0,26.0,30.02,NW,305,1.0,4.0,81,0.00,,,0.00,,2013-02-16 03:42:00,
2013-02-15 22:52:00,31.0,26.0,30.02,WNW,287,0.0,2.0,82,0.00,,,0.00,,2013-02-16 03:52:00,
2013-02-15 23:01:00,31.0,26.0,30.02,West,264,0.0,3.0,82,0.00,,,0.00,,2013-02-16 04:01:00,
2013-02-15 23:11:00,31.0,26.0,30.02,West,264,0.0,3.0,82,0.00,,,0.00,,2013-02-16 04:11:00,
2013-02-15 23:21:00,30.0,25.0,30.02,West,264,0.0,1.0,83,0.00,,,0.00,,2013-02-16 04:21:00,
2013-02-15 23:32:00,30.0,26.0,30.03,West,264,0.0,0.0,84,0.00,,,0.00,,2013-02-16 04:32:00,
2013-02-15 23:42:00,30.0,26.0,30.03,West,264,0.0,0.0,84,0.00,,,0.00,,2013-02-16 04:42:00,
2013-02-15 23:52:00,30.0,25.0,30.02,West,274,1.0,3.0,83,0.00,,,0.00,,2013-02-16 04:52:00,